Time;durP1;ratioP1;P1;durP2;ratioP2;P2;SDS_P1;SDS_P2;PMS_P1;PMS_P2;Temp;Humidity;BMP_temperature;BMP_pressure;BME280_temperature;BME280_humidity;BME280_pressure;Samples;Min_cycle;Max_cycle;Signal;HPM_P1;HPM_P2
2023/09/26 00:00:19;;;;;;;8.03;7.33;;;;;;;13.98;94.72;98722.56;4176024;28;20798;-95
2023/09/26 00:02:22;;;;;;;7.80;7.10;;;;;;;13.93;95.29;98728.13;4172995;28;21072;-95
2023/09/26 00:04:25;;;;;;;8.97;6.40;;;;;;;13.91;94.84;98729.22;4187904;28;20764;-95
2023/09/26 00:06:29;;;;;;;9.23;7.10;;;;;;;13.88;95.07;98725.00;4187086;28;20638;-95
2023/09/26 00:08:33;;;;;;;7.70;6.60;;;;;;;13.86;95.59;98719.06;4176900;28;20630;-94
2023/09/26 00:10:36;;;;;;;6.97;6.37;;;;;;;13.83;94.95;98721.03;4194983;28;20646;-96
2023/09/26 00:12:40;;;;;;;7.67;6.67;;;;;;;13.82;94.71;98722.81;4190726;28;20688;-93
2023/09/26 00:14:44;;;;;;;7.60;6.90;;;;;;;13.80;95.33;98716.88;4192813;28;20650;-96
2023/09/26 00:16:47;;;;;;;9.53;6.80;;;;;;;13.80;94.43;98713.38;4188126;28;21247;-95
2023/09/26 00:18:51;;;;;;;7.43;6.63;;;;;;;13.78;95.12;98716.13;4172616;28;20631;-94
2023/09/26 00:20:54;;;;;;;8.07;6.70;;;;;;;13.79;95.20;98717.81;4190812;28;20635;-96
2023/09/26 00:22:57;;;;;;;7.50;6.80;;;;;;;13.78;95.39;98725.78;4186083;28;20661;-94
2023/09/26 00:25:00;;;;;;;8.10;6.83;;;;;;;13.74;94.32;98716.44;4173735;28;20664;-95
2023/09/26 00:27:04;;;;;;;8.10;7.30;;;;;;;13.68;94.74;98720.34;4170084;28;21233;-96
2023/09/26 00:29:07;;;;;;;7.80;6.90;;;;;;;13.67;94.85;98718.66;4175663;28;20628;-95
2023/09/26 00:31:12;;;;;;;7.33;6.63;;;;;;;13.62;95.02;98708.63;4173650;28;20701;-96
2023/09/26 00:33:16;;;;;;;6.87;6.10;;;;;;;13.64;94.93;98724.13;4174460;28;20641;-96
2023/09/26 00:35:19;;;;;;;7.00;6.30;;;;;;;13.63;95.25;98719.00;4184380;28;20647;-96
2023/09/26 00:37:23;;;;;;;8.40;6.83;;;;;;;13.60;94.44;98710.50;4193023;28;20629;-96
2023/09/26 00:39:27;;;;;;;8.40;7.00;;;;;;;13.58;94.46;98713.25;4189268;28;21214;-95
2023/09/26 00:41:31;;;;;;;7.33;6.43;;;;;;;13.54;94.38;98710.94;4179604;28;21023;-94
2023/09/26 00:43:35;;;;;;;7.60;6.90;;;;;;;13.55;95.13;98717.88;4178345;28;20632;-94
2023/09/26 00:45:38;;;;;;;8.80;7.30;;;;;;;13.56;95.16;98709.91;4171882;28;20643;-96
2023/09/26 00:47:44;;;;;;;8.20;7.00;;;;;;;13.58;96.14;98720.28;4187111;28;20641;-95
2023/09/26 00:49:48;;;;;;;10.53;7.60;;;;;;;13.58;96.10;98715.88;4187363;28;21283;-96
2023/09/26 00:51:51;;;;;;;10.03;7.20;;;;;;;13.61;96.34;98718.28;4193314;28;20673;-96
2023/09/26 00:53:56;;;;;;;8.30;7.13;;;;;;;13.65;96.57;98712.72;4208013;28;20740;-96
2023/09/26 00:56:00;;;;;;;7.70;7.00;;;;;;;13.66;97.44;98710.91;4180210;28;20698;-96
2023/09/26 00:58:04;;;;;;;8.10;7.10;;;;;;;13.68;97.56;98719.50;4204592;28;21004;-96
2023/09/26 01:00:12;;;;;;;7.80;7.00;;;;;;;13.68;97.33;98715.09;4171372;28;21229;-94
2023/09/26 01:02:16;;;;;;;8.60;7.80;;;;;;;13.67;96.44;98717.84;4188572;28;21047;-95
2023/09/26 01:04:21;;;;;;;8.67;6.97;;;;;;;13.63;96.94;98713.75;4173769;28;20655;-96
2023/09/26 01:06:25;;;;;;;8.30;6.70;;;;;;;13.62;96.65;98712.09;4174700;28;20634;-96
2023/09/26 01:08:28;;;;;;;7.87;7.07;;;;;;;13.60;96.71;98716.59;4192237;28;20621;-94
2023/09/26 01:10:32;;;;;;;8.00;7.20;;;;;;;13.57;96.14;98713.34;4175992;28;20635;-96
2023/09/26 01:12:38;;;;;;;7.93;7.13;;;;;;;13.56;95.62;98709.03;4179300;28;20954;-96
2023/09/26 01:14:42;;;;;;;8.83;7.50;;;;;;;13.50;95.53;98704.22;4174896;28;21616;-96
2023/09/26 01:16:45;;;;;;;8.90;7.37;;;;;;;13.44;94.99;98707.28;4173083;28;20686;-96
2023/09/26 01:18:48;;;;;;;7.83;7.03;;;;;;;13.40;94.80;98711.91;4195937;28;21136;-95
2023/09/26 01:20:55;;;;;;;9.33;7.90;;;;;;;13.40;95.43;98714.53;4191476;28;20625;-95
2023/09/26 01:23:04;;;;;;;8.03;7.23;;;;;;;13.39;95.94;98717.25;4189826;28;21093;-95
2023/09/26 01:25:09;;;;;;;8.33;7.30;;;;;;;13.37;96.01;98714.75;4175969;28;21073;-96
2023/09/26 01:27:13;;;;;;;8.70;7.40;;;;;;;13.34;95.25;98714.94;4171684;28;20618;-96
2023/09/26 01:29:16;;;;;;;7.60;6.90;;;;;;;13.32;94.71;98710.75;4170461;28;20638;-96
2023/09/26 01:31:19;;;;;;;9.40;8.17;;;;;;;13.31;95.10;98703.84;4185883;28;20714;-96
2023/09/26 01:33:23;;;;;;;7.03;6.33;;;;;;;13.30;94.48;98710.84;4172307;28;20618;-95
2023/09/26 01:35:25;;;;;;;8.73;7.83;;;;;;;13.28;95.36;98701.44;4175580;28;20867;-95
2023/09/26 01:37:29;;;;;;;7.43;6.73;;;;;;;13.27;94.62;98702.38;4169670;28;20702;-95
2023/09/26 01:39:32;;;;;;;8.37;6.83;;;;;;;13.23;95.83;98698.31;4188541;28;20690;-96
2023/09/26 01:41:37;;;;;;;10.23;7.00;;;;;;;13.24;94.86;98694.72;4170881;28;20683;-95
2023/09/26 01:43:40;;;;;;;8.40;7.60;;;;;;;13.24;95.60;98702.59;4188945;28;20638;-90
2023/09/26 01:45:43;;;;;;;7.80;7.10;;;;;;;13.22;95.57;98699.25;4190782;28;21099;-90
2023/09/26 01:47:46;;;;;;;8.57;7.13;;;;;;;13.21;96.06;98698.41;4195349;28;21041;-90
2023/09/26 01:49:50;;;;;;;7.53;6.80;;;;;;;13.19;95.46;98704.69;4174440;28;20756;-90
2023/09/26 01:51:53;;;;;;;8.00;7.20;;;;;;;13.12;95.20;98702.59;4187768;28;20653;-90
2023/09/26 01:53:57;;;;;;;7.63;6.67;;;;;;;13.04;94.43;98694.44;4177550;28;20638;-90
2023/09/26 01:56:00;;;;;;;8.53;6.53;;;;;;;13.03;95.34;98704.06;4171875;28;20740;-90
2023/09/26 01:58:07;;;;;;;8.97;7.47;;;;;;;13.03;95.50;98705.84;4187026;28;20729;-90
2023/09/26 02:00:11;;;;;;;9.80;7.90;;;;;;;13.02;94.82;98706.78;4169569;28;20660;-90
2023/09/26 02:02:14;;;;;;;9.13;8.10;;;;;;;12.97;95.88;98703.66;4171827;28;20673;-90
2023/09/26 02:04:17;;;;;;;8.10;7.30;;;;;;;12.93;94.90;98705.66;4187871;28;20675;-90
2023/09/26 02:06:21;;;;;;;7.90;7.10;;;;;;;12.93;95.43;98702.16;4181577;28;20820;-90
2023/09/26 02:08:25;;;;;;;8.23;7.40;;;;;;;12.94;95.54;98707.31;4182570;28;20729;-90
2023/09/26 02:10:28;;;;;;;9.07;7.47;;;;;;;12.94;95.32;98707.31;4173858;28;20669;-90
2023/09/26 02:12:30;;;;;;;8.30;7.43;;;;;;;12.92;97.15;98703.97;4172345;28;20742;-90
2023/09/26 02:14:35;;;;;;;8.07;7.23;;;;;;;12.91;95.26;98702.28;4171910;28;20669;-90
2023/09/26 02:16:38;;;;;;;7.70;7.00;;;;;;;12.87;95.13;98697.34;4171380;28;20649;-90
2023/09/26 02:18:41;;;;;;;7.57;6.87;;;;;;;12.82;96.38;98689.84;4171732;28;20645;-90
2023/09/26 02:20:46;;;;;;;8.23;7.37;;;;;;;12.82;95.95;98691.56;4184222;28;20659;-90
2023/09/26 02:22:52;;;;;;;7.93;7.13;;;;;;;12.82;97.09;98699.41;4171381;28;20633;-90
2023/09/26 02:24:55;;;;;;;8.03;7.23;;;;;;;12.84;96.20;98700.19;4188960;28;20643;-90
2023/09/26 02:26:58;;;;;;;8.13;7.03;;;;;;;12.85;97.56;98704.47;4173919;28;20805;-90
2023/09/26 02:29:02;;;;;;;7.70;6.90;;;;;;;12.86;96.79;98700.94;4189564;28;20640;-90
2023/09/26 02:31:06;;;;;;;10.83;7.10;;;;;;;12.85;97.02;98700.09;4168392;28;20640;-90
2023/09/26 02:33:09;;;;;;;7.20;6.50;;;;;;;12.78;96.43;98698.78;4189885;28;20735;-90
2023/09/26 02:35:14;;;;;;;7.40;6.70;;;;;;;12.76;96.41;98695.44;4176475;28;20640;-90
2023/09/26 02:37:17;;;;;;;7.60;6.90;;;;;;;12.76;95.12;98697.22;4169501;28;20656;-90
2023/09/26 02:39:19;;;;;;;8.60;7.33;;;;;;;12.72;95.29;98682.66;4173899;28;20638;-90
2023/09/26 02:41:22;;;;;;;9.10;7.60;;;;;;;12.70;95.24;98692.38;4183419;28;20719;-90
2023/09/26 02:43:26;;;;;;;7.90;7.10;;;;;;;12.69;95.67;98691.56;4197291;28;21002;-90
2023/09/26 02:45:30;;;;;;;8.07;6.80;;;;;;;12.70;95.10;98693.25;4189079;28;20731;-90
2023/09/26 02:47:35;;;;;;;7.77;6.90;;;;;;;12.69;94.83;98685.50;4172620;28;20725;-90
2023/09/26 02:49:38;;;;;;;7.10;6.40;;;;;;;12.67;94.64;98686.53;4183876;28;20635;-90
2023/09/26 02:51:41;;;;;;;8.37;6.80;;;;;;;12.61;94.71;98685.16;4181735;28;20625;-90
2023/09/26 02:53:45;;;;;;;7.23;6.47;;;;;;;12.54;94.48;98683.03;4202992;28;20632;-96
2023/09/26 02:55:48;;;;;;;8.70;7.80;;;;;;;12.51;95.12;98675.41;4186134;28;20633;-95
2023/09/26 02:57:50;;;;;;;8.13;7.27;;;;;;;12.53;94.04;98681.38;4169314;28;20635;-95
2023/09/26 02:59:54;;;;;;;9.30;8.10;;;;;;;12.51;95.64;98678.00;4188487;28;20674;-96
2023/09/26 03:01:57;;;;;;;8.83;6.80;;;;;;;12.52;94.12;98685.75;4172841;28;20630;-96
2023/09/26 03:04:02;;;;;;;9.20;7.73;;;;;;;12.51;94.53;98689.34;4185705;28;20651;-95
2023/09/26 03:06:05;;;;;;;8.90;7.80;;;;;;;12.50;95.34;98689.44;4171999;28;20692;-95
2023/09/26 03:08:09;;;;;;;8.17;7.37;;;;;;;12.50;95.41;98697.28;4190037;28;20687;-96
2023/09/26 03:10:13;;;;;;;7.77;7.07;;;;;;;12.48;95.84;98684.31;4193074;28;20625;-95
2023/09/26 03:12:15;;;;;;;7.93;7.13;;;;;;;12.46;94.94;98695.81;4186903;28;20627;-96
2023/09/26 03:14:21;;;;;;;8.60;7.70;;;;;;;12.46;93.96;98690.56;4171822;28;20628;-95
2023/09/26 03:16:24;;;;;;;11.20;8.30;;;;;;;12.41;95.24;98687.44;4189176;28;21354;-94
2023/09/26 03:18:28;;;;;;;8.30;7.43;;;;;;;12.38;95.33;98690.25;4190446;28;21290;-94
2023/09/26 03:20:33;;;;;;;8.47;7.67;;;;;;;12.38;95.07;98687.63;4188209;28;20635;-95
2023/09/26 03:22:36;;;;;;;9.47;7.80;;;;;;;12.36;96.35;98699.97;4186136;28;21071;-96
2023/09/26 03:24:40;;;;;;;9.17;8.30;;;;;;;12.36;95.69;98689.50;4186010;28;21190;-95
2023/09/26 03:26:43;;;;;;;10.37;7.93;;;;;;;12.36;95.97;98685.13;4190908;28;20629;-94
2023/09/26 03:28:47;;;;;;;8.13;7.33;;;;;;;12.36;95.53;98700.81;4176850;28;21289;-95
2023/09/26 03:30:49;;;;;;;9.53;7.67;;;;;;;12.27;94.32;98692.72;4189912;28;21324;-95
2023/09/26 03:32:52;;;;;;;8.33;7.27;;;;;;;12.25;93.81;98699.81;4173875;28;20659;-96
2023/09/26 03:34:56;;;;;;;7.90;7.03;;;;;;;12.26;95.66;98701.50;4170728;28;20703;-96
2023/09/26 03:37:01;;;;;;;8.60;7.80;;;;;;;12.26;96.67;98696.28;4169599;28;20899;-95
2023/09/26 03:39:05;;;;;;;10.00;8.00;;;;;;;12.29;95.59;98701.31;4166664;28;20642;-94
2023/09/26 03:41:08;;;;;;;8.73;7.83;;;;;;;12.30;95.15;98689.91;4187675;28;20626;-94
2023/09/26 03:43:11;;;;;;;9.80;7.33;;;;;;;12.30;95.94;98684.69;4174860;28;21236;-95
2023/09/26 03:45:15;;;;;;;9.73;7.37;;;;;;;12.29;95.30;98693.47;4174235;28;20654;-95
2023/09/26 03:47:18;;;;;;;8.63;7.27;;;;;;;12.28;94.62;98691.78;4187164;28;20625;-96
2023/09/26 03:49:22;;;;;;;8.17;7.37;;;;;;;12.23;94.44;98692.06;4201692;28;20640;-96
2023/09/26 03:51:25;;;;;;;7.80;7.00;;;;;;;12.19;94.97;98686.31;4203054;28;20643;-95
2023/09/26 03:53:30;;;;;;;8.40;7.60;;;;;;;12.19;95.18;98683.69;4183845;28;21067;-95
2023/09/26 03:55:33;;;;;;;8.27;7.47;;;;;;;12.15;95.36;98679.59;4175386;28;21145;-95
2023/09/26 03:57:35;;;;;;;9.83;6.90;;;;;;;12.12;94.86;98680.66;4173675;28;21304;-96
2023/09/26 03:59:39;;;;;;;7.77;6.97;;;;;;;12.12;94.39;98685.03;4173547;28;20627;-95
2023/09/26 04:01:42;;;;;;;8.93;7.47;;;;;;;12.11;95.91;98684.19;4172304;28;20685;-96
2023/09/26 04:03:48;;;;;;;8.67;7.30;;;;;;;12.14;94.68;98678.78;4170760;28;21014;-95
2023/09/26 04:05:57;;;;;;;8.73;7.83;;;;;;;12.17;96.23;98683.81;4184359;28;20674;-95
2023/09/26 04:08:00;;;;;;;8.00;7.20;;;;;;;12.17;94.08;98678.56;4185792;28;21074;-95
2023/09/26 04:10:05;;;;;;;8.23;7.07;;;;;;;12.11;95.07;98678.97;4199028;28;20617;-95
2023/09/26 04:12:09;;;;;;;8.30;7.40;;;;;;;12.05;95.56;98678.53;4181844;28;21019;-93
2023/09/26 04:14:12;;;;;;;7.27;6.57;;;;;;;12.03;95.23;98681.25;4170409;28;20664;-96
2023/09/26 04:16:15;;;;;;;9.43;7.27;;;;;;;12.02;95.24;98676.94;4188005;28;20621;-95
2023/09/26 04:18:19;;;;;;;9.10;7.50;;;;;;;12.03;96.36;98676.03;4180118;28;20648;-95
2023/09/26 04:20:23;;;;;;;8.53;7.63;;;;;;;12.04;94.59;98675.09;4166462;28;20736;-95
2023/09/26 04:22:40;;;;;;;8.90;6.67;;;;;;;12.04;95.98;98669.88;4174777;28;20671;-93
2023/09/26 04:24:43;;;;;;;9.63;7.83;;;;;;;12.07;94.75;98674.91;4188043;28;20646;-95
2023/09/26 04:26:48;;;;;;;7.30;6.60;;;;;;;12.08;96.24;98673.09;4188914;28;21016;-96
2023/09/26 04:28:51;;;;;;;7.80;7.00;;;;;;;12.07;95.41;98671.41;4187239;28;21023;-95
2023/09/26 04:30:55;;;;;;;7.90;7.10;;;;;;;12.02;95.55;98665.66;4187468;28;20674;-96
2023/09/26 04:32:58;;;;;;;11.77;6.77;;;;;;;12.01;95.07;98669.19;4171172;28;20625;-95
2023/09/26 04:35:03;;;;;;;7.90;7.13;;;;;;;12.01;95.45;98667.44;4190169;28;20632;-95
2023/09/26 04:37:07;;;;;;;8.90;8.00;;;;;;;12.00;96.11;98671.00;4188060;28;20604;-95
2023/09/26 04:39:11;;;;;;;8.20;7.40;;;;;;;11.99;94.14;98671.91;4170981;28;21024;-93
2023/09/26 04:41:14;;;;;;;10.47;7.67;;;;;;;11.97;94.30;98667.75;4174236;28;20636;-96
2023/09/26 04:43:19;;;;;;;7.70;6.90;;;;;;;11.91;94.35;98666.34;4188416;28;20659;-95
2023/09/26 04:45:23;;;;;;;9.47;6.77;;;;;;;11.91;95.01;98668.97;4190765;28;20697;-96
2023/09/26 04:47:27;;;;;;;7.90;7.17;;;;;;;11.87;94.74;98664.84;4180326;28;20618;-93
2023/09/26 04:49:31;;;;;;;9.00;8.20;;;;;;;11.87;94.72;98667.47;4185437;28;20628;-95
2023/09/26 04:51:34;;;;;;;8.40;7.60;;;;;;;11.86;95.70;98667.56;4172264;28;20625;-94
2023/09/26 04:53:38;;;;;;;9.13;8.10;;;;;;;11.88;96.15;98663.94;4200844;28;21227;-95
2023/09/26 04:55:41;;;;;;;10.23;8.40;;;;;;;11.89;94.88;98667.38;4191241;28;20642;-94
2023/09/26 04:57:45;;;;;;;9.40;8.40;;;;;;;11.88;96.91;98666.53;4194958;28;20662;-94
2023/09/26 04:59:49;;;;;;;8.33;7.53;;;;;;;11.89;95.76;98665.63;4174957;28;20643;-96
2023/09/26 05:01:53;;;;;;;9.10;7.97;;;;;;;11.85;95.77;98669.34;4172859;28;20620;-95
2023/09/26 05:03:56;;;;;;;9.43;8.17;;;;;;;11.80;94.75;98674.06;4190788;28;20639;-94
2023/09/26 05:06:00;;;;;;;8.90;7.60;;;;;;;11.78;95.87;98670.69;4175612;28;20692;-96
2023/09/26 05:08:04;;;;;;;9.03;7.20;;;;;;;11.72;94.97;98666.78;4187517;28;21436;-95
2023/09/26 05:10:08;;;;;;;8.83;7.80;;;;;;;11.68;93.70;98670.53;4188902;28;20642;-95
2023/09/26 05:12:11;;;;;;;8.70;7.30;;;;;;;11.67;93.84;98677.53;4191186;28;20624;-95
2023/09/26 05:14:14;;;;;;;9.03;8.20;;;;;;;11.69;95.74;98680.06;4187725;28;20620;-96
2023/09/26 05:16:19;;;;;;;11.53;7.83;;;;;;;11.65;95.39;98679.41;4186721;28;20662;-96
2023/09/26 05:18:23;;;;;;;9.10;7.57;;;;;;;11.62;94.10;98673.53;4172774;28;20665;-90
2023/09/26 05:20:26;;;;;;;8.40;7.60;;;;;;;11.62;94.10;98678.75;4190788;28;20952;-90
2023/09/26 05:22:29;;;;;;;8.57;7.43;;;;;;;11.61;93.41;98680.53;4188921;28;20634;-90
2023/09/26 05:24:33;;;;;;;9.67;7.90;;;;;;;11.64;95.25;98676.91;4190901;28;20656;-95
2023/09/26 05:26:36;;;;;;;11.40;8.93;;;;;;;11.66;94.99;98675.84;4177941;28;21160;-96
2023/09/26 05:28:40;;;;;;;11.00;8.33;;;;;;;11.71;95.14;98683.41;4207568;28;20696;-95
2023/09/26 05:30:44;;;;;;;9.40;8.30;;;;;;;11.75;96.73;98687.50;4185747;28;20723;-95
2023/09/26 05:32:49;;;;;;;9.37;8.47;;;;;;;11.75;95.94;98691.78;4186042;28;20631;-94
2023/09/26 05:34:51;;;;;;;8.30;7.50;;;;;;;11.78;96.13;98690.75;4179287;28;21187;-95
2023/09/26 05:36:54;;;;;;;9.60;8.60;;;;;;;11.83;95.97;98692.16;4190548;28;21247;-94
2023/09/26 05:38:58;;;;;;;9.53;8.63;;;;;;;11.93;95.38;98690.59;4178356;28;20652;-95
2023/09/26 05:41:01;;;;;;;8.47;7.67;;;;;;;12.00;95.63;98684.06;4177560;28;20654;-95
2023/09/26 05:43:05;;;;;;;9.30;8.03;;;;;;;12.12;96.02;98696.34;4188155;28;20624;-94
2023/09/26 05:45:11;;;;;;;9.27;7.70;;;;;;;12.21;95.39;98700.97;4176404;28;20674;-94
2023/09/26 05:47:14;;;;;;;8.60;7.80;;;;;;;12.28;94.51;98703.09;4204598;28;20670;-95
2023/09/26 05:49:19;;;;;;;11.17;8.50;;;;;;;12.34;94.79;98696.59;4187508;28;20628;-94
2023/09/26 05:51:22;;;;;;;10.23;8.43;;;;;;;12.46;94.61;98701.91;4188513;28;20622;-94
2023/09/26 05:53:27;;;;;;;13.77;8.00;;;;;;;12.57;95.16;98703.78;4173551;28;20636;-96
2023/09/26 05:55:30;;;;;;;9.60;8.00;;;;;;;12.68;94.64;98702.13;4178418;28;20653;-96
2023/09/26 05:57:34;;;;;;;8.83;7.73;;;;;;;12.81;94.45;98701.19;4180838;28;20660;-94
2023/09/26 05:59:37;;;;;;;9.10;8.20;;;;;;;12.94;94.28;98699.44;4188100;28;21078;-96
2023/09/26 06:01:41;;;;;;;9.10;8.30;;;;;;;13.07;94.62;98705.53;4191009;28;20623;-96
2023/09/26 06:03:45;;;;;;;10.20;8.80;;;;;;;13.21;94.87;98701.03;4180076;28;20662;-95
2023/09/26 06:05:51;;;;;;;9.77;8.80;;;;;;;13.36;94.40;98701.75;4182690;28;20657;-92
2023/09/26 06:07:55;;;;;;;11.30;8.90;;;;;;;13.45;93.10;98703.72;4187050;28;20628;-96
2023/09/26 06:10:00;;;;;;;11.53;9.23;;;;;;;13.57;92.94;98706.31;4179889;28;20633;-96
2023/09/26 06:12:14;;;;;;;11.43;9.10;;;;;;;13.70;92.79;98710.59;4197415;28;20723;-94
2023/09/26 06:14:18;;;;;;;9.80;8.90;;;;;;;13.81;93.38;98705.41;4186932;28;20645;-96
2023/09/26 06:16:22;;;;;;;10.90;9.07;;;;;;;13.95;92.99;98707.03;4187517;28;20630;-96
2023/09/26 06:18:29;;;;;;;10.90;9.67;;;;;;;14.11;92.31;98707.66;4176634;28;20653;-95
2023/09/26 06:20:35;;;;;;;11.40;9.17;;;;;;;14.16;91.08;98709.84;4170963;28;20642;-96
2023/09/26 06:22:39;;;;;;;9.33;8.53;;;;;;;14.23;90.09;98713.66;4187129;28;20625;-94
2023/09/26 06:24:43;;;;;;;11.37;9.57;;;;;;;14.37;89.88;98717.91;4182722;28;21209;-90
2023/09/26 06:26:45;;;;;;;11.17;9.57;;;;;;;14.47;89.93;98711.06;4183683;28;20641;-90
2023/09/26 06:28:48;;;;;;;14.20;9.10;;;;;;;14.59;90.34;98719.69;4190754;28;21073;-91
2023/09/26 06:30:51;;;;;;;9.50;8.60;;;;;;;14.75;90.77;98716.78;4192535;28;20709;-90
2023/09/26 06:32:54;;;;;;;11.20;9.40;;;;;;;14.86;90.78;98720.25;4187937;28;20690;-91
2023/09/26 06:34:59;;;;;;;11.27;8.40;;;;;;;15.01;91.23;98718.25;4187443;28;20645;-92
2023/09/26 06:37:05;;;;;;;10.97;9.03;;;;;;;15.15;90.88;98721.50;4178740;28;20625;-90
2023/09/26 06:39:11;;;;;;;9.67;8.67;;;;;;;15.29;89.55;98727.41;4190002;28;20647;-90
2023/09/26 06:41:14;;;;;;;10.17;8.80;;;;;;;15.44;89.86;98725.38;4183245;28;20613;-90
2023/09/26 06:43:17;;;;;;;10.00;8.93;;;;;;;15.57;90.22;98734.81;4189162;28;20626;-90
2023/09/26 06:45:21;;;;;;;12.60;9.47;;;;;;;15.69;89.32;98729.44;4195462;28;20635;-89
2023/09/26 06:47:25;;;;;;;9.87;8.87;;;;;;;15.81;90.39;98733.72;4185736;28;20673;-89
2023/09/26 06:49:28;;;;;;;15.70;11.83;;;;;;;15.93;88.17;98731.94;4182984;28;20637;-89
2023/09/26 06:51:33;;;;;;;9.70;8.70;;;;;;;16.04;89.73;98733.59;4191908;28;20631;-89
2023/09/26 06:53:37;;;;;;;11.23;8.80;;;;;;;16.16;89.17;98732.63;4185867;28;21211;-89
2023/09/26 06:55:41;;;;;;;9.63;8.60;;;;;;;16.27;87.86;98740.50;4171475;28;20632;-90
2023/09/26 06:57:44;;;;;;;10.03;9.10;;;;;;;16.37;89.71;98738.78;4187003;28;20776;-89
2023/09/26 06:59:51;;;;;;;9.57;8.63;;;;;;;16.47;86.13;98736.25;4186392;28;20836;-89
2023/09/26 07:01:54;;;;;;;9.60;8.13;;;;;;;16.53;86.65;98739.22;4188182;28;21028;-89
2023/09/26 07:03:58;;;;;;;10.57;9.07;;;;;;;16.64;86.09;98736.53;4188337;28;20634;-89
2023/09/26 07:06:08;;;;;;;12.33;8.30;;;;;;;16.80;87.31;98737.78;4162178;28;20694;-89
2023/09/26 07:08:12;;;;;;;9.30;8.40;;;;;;;16.97;87.88;98739.84;4181106;28;20629;-90
2023/09/26 07:10:18;;;;;;;9.93;8.93;;;;;;;17.09;85.02;98728.28;4185226;28;20642;-89
2023/09/26 07:12:22;;;;;;;9.30;8.30;;;;;;;17.17;87.51;98736.38;4171318;28;20665;-89
2023/09/26 07:14:25;;;;;;;8.93;8.03;;;;;;;17.34;87.90;98741.13;4172487;28;20664;-88
2023/09/26 07:16:32;;;;;;;9.23;8.33;;;;;;;17.46;87.33;98733.81;4186269;28;21252;-89
2023/09/26 07:18:38;;;;;;;10.10;9.10;;;;;;;17.63;86.93;98735.00;4191385;28;21233;-89
2023/09/26 07:20:48;;;;;;;9.43;8.53;;;;;;;17.73;84.49;98734.06;4185976;28;20679;-90
2023/09/26 07:22:51;;;;;;;9.13;8.23;;;;;;;17.75;84.27;98724.22;4184346;28;20700;-90
2023/09/26 07:24:54;;;;;;;8.90;8.00;;;;;;;17.92;87.09;98734.97;4171070;28;21075;-90
2023/09/26 07:26:57;;;;;;;9.60;8.60;;;;;;;18.02;84.79;98733.19;4198541;28;20672;-90
2023/09/26 07:29:02;;;;;;;9.40;8.20;;;;;;;18.11;84.09;98731.56;4179507;28;20690;-90
2023/09/26 07:31:05;;;;;;;10.77;8.67;;;;;;;18.18;83.98;98733.56;4190556;28;20644;-91
2023/09/26 07:33:08;;;;;;;11.00;8.57;;;;;;;18.31;84.11;98736.78;4172250;28;20645;-91
2023/09/26 07:35:12;;;;;;;8.50;7.77;;;;;;;18.41;84.13;98743.72;4199715;28;21289;-91
2023/09/26 07:37:15;;;;;;;11.10;8.30;;;;;;;18.62;85.71;98741.81;4185291;28;20766;-90
2023/09/26 07:39:19;;;;;;;9.63;8.63;;;;;;;18.79;84.70;98743.75;4173399;28;21007;-90
2023/09/26 07:41:22;;;;;;;9.50;8.50;;;;;;;18.89;84.85;98737.50;4189641;28;20718;-90
2023/09/26 07:43:29;;;;;;;9.00;7.63;;;;;;;19.07;84.09;98741.13;4183159;28;20725;-90
2023/09/26 07:45:33;;;;;;;12.97;8.40;;;;;;;19.23;83.00;98740.53;4183462;28;20745;-90
2023/09/26 07:47:37;;;;;;;8.90;8.00;;;;;;;19.27;83.36;98734.84;4185877;28;21050;-90
2023/09/26 07:49:40;;;;;;;11.13;9.23;;;;;;;19.40;85.22;98738.00;4173681;28;20650;-90
2023/09/26 07:51:44;;;;;;;8.53;7.73;;;;;;;19.53;82.92;98744.66;4173437;28;20638;-90
2023/09/26 07:53:47;;;;;;;9.33;7.80;;;;;;;19.68;81.79;98745.03;4185280;28;20638;-90
2023/09/26 07:55:50;;;;;;;8.00;7.30;;;;;;;19.84;83.05;98743.44;4174428;28;20814;-90
2023/09/26 07:57:52;;;;;;;8.30;7.50;;;;;;;20.00;83.75;98738.38;4172781;28;20633;-90
2023/09/26 07:59:56;;;;;;;9.40;8.50;;;;;;;20.21;83.46;98744.28;4186748;28;21140;-90
2023/09/26 08:02:00;;;;;;;9.80;8.57;;;;;;;20.33;80.96;98731.47;4184725;28;21224;-90
2023/09/26 08:04:04;;;;;;;9.20;8.33;;;;;;;20.47;80.63;98740.75;4184226;28;21206;-90
2023/09/26 08:06:08;;;;;;;10.10;9.10;;;;;;;20.60;81.32;98743.88;4187949;28;20628;-90
2023/09/26 08:08:11;;;;;;;9.50;8.60;;;;;;;20.71;81.24;98741.03;4181610;28;20627;-90
2023/09/26 08:10:14;;;;;;;10.87;8.90;;;;;;;20.81;80.61;98742.63;4185166;28;20628;-90
2023/09/26 08:12:17;;;;;;;10.47;9.37;;;;;;;20.91;80.42;98735.38;4189257;28;20632;-91
2023/09/26 08:14:20;;;;;;;9.47;8.33;;;;;;;21.03;79.98;98734.16;4168025;28;20633;-90
2023/09/26 08:16:24;;;;;;;12.63;8.90;;;;;;;21.13;81.07;98735.75;4182039;28;20629;-90
2023/09/26 08:18:28;;;;;;;9.13;8.33;;;;;;;21.25;81.05;98733.69;4181783;28;20651;-88
2023/09/26 08:20:32;;;;;;;10.60;8.90;;;;;;;21.29;79.80;98726.09;4186438;28;20683;-88
2023/09/26 08:22:35;;;;;;;11.13;9.40;;;;;;;21.39;80.63;98734.81;4186329;28;20644;-89
2023/09/26 08:24:39;;;;;;;10.27;9.27;;;;;;;21.46;79.05;98729.72;4183509;28;20730;-88
2023/09/26 08:26:41;;;;;;;9.63;8.73;;;;;;;21.54;80.17;98733.25;4172732;28;20663;-88
2023/09/26 08:28:45;;;;;;;9.97;8.70;;;;;;;21.63;79.05;98734.97;4170761;28;20724;-88
2023/09/26 08:30:48;;;;;;;12.33;8.67;;;;;;;21.68;78.69;98730.03;4189525;28;20965;-88
2023/09/26 08:32:51;;;;;;;9.83;8.70;;;;;;;21.66;78.73;98731.16;4175903;28;20655;-88
2023/09/26 08:34:57;;;;;;;9.80;8.37;;;;;;;21.60;76.59;98722.00;4189114;28;21083;-89
2023/09/26 08:37:00;;;;;;;10.27;8.30;;;;;;;21.55;76.65;98728.78;4175256;28;20649;-88
2023/09/26 08:39:04;;;;;;;14.00;8.80;;;;;;;21.59;78.28;98717.69;4190186;28;20632;-88
2023/09/26 08:41:09;;;;;;;11.67;8.27;;;;;;;21.71;77.08;98723.56;4188104;28;21232;-89
2023/09/26 08:43:13;;;;;;;8.17;7.37;;;;;;;21.68;77.78;98722.06;4171291;28;20665;-86
2023/09/26 08:45:17;;;;;;;8.63;7.70;;;;;;;21.73;77.91;98718.94;4171139;28;20836;-88
2023/09/26 08:47:23;;;;;;;8.00;7.23;;;;;;;21.79;76.67;98711.97;4187840;28;20626;-88
2023/09/26 08:49:27;;;;;;;8.30;7.50;;;;;;;21.91;78.24;98708.06;4173553;28;20630;-88
2023/09/26 08:51:31;;;;;;;7.90;6.93;;;;;;;21.98;78.15;98710.88;4187122;28;20677;-88
2023/09/26 08:53:34;;;;;;;14.30;9.27;;;;;;;22.03;76.63;98704.13;4188603;28;20636;-92
2023/09/26 08:55:38;;;;;;;8.77;7.97;;;;;;;22.06;76.81;98711.75;4188433;28;20656;-93
2023/09/26 08:57:42;;;;;;;8.70;7.80;;;;;;;22.13;77.04;98718.13;4192465;28;20686;-93
2023/09/26 08:59:47;;;;;;;8.70;7.80;;;;;;;22.11;76.82;98716.59;4169798;28;20643;-92
2023/09/26 09:01:51;;;;;;;8.90;8.00;;;;;;;22.15;76.79;98718.78;4189004;28;20636;-93
2023/09/26 09:03:54;;;;;;;8.00;7.17;;;;;;;22.23;79.38;98713.50;4193188;28;20649;-93
2023/09/26 09:05:58;;;;;;;10.20;8.07;;;;;;;22.33;76.92;98711.56;4188821;28;20700;-94
2023/09/26 09:08:03;;;;;;;7.87;7.20;;;;;;;22.35;76.39;98710.38;4173436;28;20631;-95
2023/09/26 09:10:07;;;;;;;8.63;7.77;;;;;;;22.36;76.85;98709.41;4190854;28;20669;-90
2023/09/26 09:12:22;;;;;;;7.67;6.97;;;;;;;22.43;77.32;98702.44;4186135;28;20636;-93
2023/09/26 09:14:32;;;;;;;8.97;7.40;;;;;;;22.55;78.88;98705.59;4190068;28;20729;-93
2023/09/26 09:16:36;;;;;;;8.40;7.60;;;;;;;22.62;78.65;98699.47;4184549;28;20634;-93
2023/09/26 09:18:41;;;;;;;9.87;7.47;;;;;;;22.68;78.42;98700.66;4203585;28;20648;-95
2023/09/26 09:20:45;;;;;;;8.30;7.50;;;;;;;22.69;76.95;98697.81;4189870;28;21324;-93
2023/09/26 09:22:48;;;;;;;8.47;7.67;;;;;;;22.67;76.25;98697.13;4174817;28;20625;-93
2023/09/26 09:24:58;;;;;;;9.07;7.70;;;;;;;22.72;78.76;98698.31;4173159;28;20635;-93
2023/09/26 09:27:01;;;;;;;9.10;7.80;;;;;;;22.78;77.57;98697.66;4179151;28;21226;-94
2023/09/26 09:29:18;;;;;;;9.47;8.57;;;;;;;22.83;77.08;98694.50;4177420;28;20620;-93
2023/09/26 09:31:22;;;;;;;8.77;7.90;;;;;;;22.88;77.83;98690.38;4173147;28;20619;-93
2023/09/26 09:33:27;;;;;;;8.80;7.90;;;;;;;22.95;77.01;98687.88;4186812;28;20665;-94
2023/09/26 09:35:30;;;;;;;9.50;7.83;;;;;;;22.98;78.30;98683.06;4195989;28;20646;-93
2023/09/26 09:37:33;;;;;;;8.47;7.67;;;;;;;23.08;78.00;98675.75;4189084;28;20629;-93
2023/09/26 09:39:36;;;;;;;8.20;7.10;;;;;;;23.13;76.10;98685.88;4175904;28;20642;-91
2023/09/26 09:41:41;;;;;;;8.00;7.20;;;;;;;23.19;76.36;98685.22;4178148;28;20754;-93